sensor_id;sensor_type;location;lat;lon;timestamp;temperature;humidity
47162;DHT22;32921;53.256;8.198;2023-09-08T00:00:51;14.50;99.90
47162;DHT22;32921;53.256;8.198;2023-09-08T00:03:17;14.70;99.90
47162;DHT22;32921;53.256;8.198;2023-09-08T00:05:42;14.90;99.90
47162;DHT22;32921;53.256;8.198;2023-09-08T00:08:08;14.90;99.90
47162;DHT22;32921;53.256;8.198;2023-09-08T00:10:33;14.90;99.90
47162;DHT22;32921;53.256;8.198;2023-09-08T00:12:59;14.90;99.90
47162;DHT22;32921;53.256;8.198;2023-09-08T00:15:24;15.30;99.90
47162;DHT22;32921;53.256;8.198;2023-09-08T00:17:50;15.50;99.90
47162;DHT22;32921;53.256;8.198;2023-09-08T00:20:15;15.50;99.90
47162;DHT22;32921;53.256;8.198;2023-09-08T00:22:41;15.60;99.90
47162;DHT22;32921;53.256;8.198;2023-09-08T00:25:07;15.60;99.90
47162;DHT22;32921;53.256;8.198;2023-09-08T00:27:32;15.70;99.90
47162;DHT22;32921;53.256;8.198;2023-09-08T00:29:58;15.90;99.90
47162;DHT22;32921;53.256;8.198;2023-09-08T00:32:24;15.90;99.90
47162;DHT22;32921;53.256;8.198;2023-09-08T00:34:49;15.80;99.90
47162;DHT22;32921;53.256;8.198;2023-09-08T00:37:15;15.80;99.90
47162;DHT22;32921;53.256;8.198;2023-09-08T00:39:40;15.80;99.90
47162;DHT22;32921;53.256;8.198;2023-09-08T00:42:06;15.70;99.90
47162;DHT22;32921;53.256;8.198;2023-09-08T00:44:32;15.60;99.90
47162;DHT22;32921;53.256;8.198;2023-09-08T00:46:58;15.50;99.90
47162;DHT22;32921;53.256;8.198;2023-09-08T00:49:24;15.70;99.90
47162;DHT22;32921;53.256;8.198;2023-09-08T00:51:49;15.80;99.90
47162;DHT22;32921;53.256;8.198;2023-09-08T00:54:15;15.70;99.90
47162;DHT22;32921;53.256;8.198;2023-09-08T00:56:40;15.60;99.90
47162;DHT22;32921;53.256;8.198;2023-09-08T00:59:07;15.60;99.90
47162;DHT22;32921;53.256;8.198;2023-09-08T01:01:33;15.50;99.90
47162;DHT22;32921;53.256;8.198;2023-09-08T01:04:00;15.60;99.90
47162;DHT22;32921;53.256;8.198;2023-09-08T01:06:26;15.60;99.90
47162;DHT22;32921;53.256;8.198;2023-09-08T01:08:53;15.70;99.90
47162;DHT22;32921;53.256;8.198;2023-09-08T01:11:20;15.70;99.90
47162;DHT22;32921;53.256;8.198;2023-09-08T01:13:45;15.90;99.90
47162;DHT22;32921;53.256;8.198;2023-09-08T01:16:11;16.00;99.90
47162;DHT22;32921;53.256;8.198;2023-09-08T01:18:37;16.00;99.90
47162;DHT22;32921;53.256;8.198;2023-09-08T01:21:13;15.80;99.90
47162;DHT22;32921;53.256;8.198;2023-09-08T01:23:56;15.90;99.90
47162;DHT22;32921;53.256;8.198;2023-09-08T01:26:27;15.80;99.90
47162;DHT22;32921;53.256;8.198;2023-09-08T01:28:55;15.70;99.90
47162;DHT22;32921;53.256;8.198;2023-09-08T01:31:21;15.70;99.90
47162;DHT22;32921;53.256;8.198;2023-09-08T01:33:47;15.80;99.90
47162;DHT22;32921;53.256;8.198;2023-09-08T01:36:13;15.70;99.90
47162;DHT22;32921;53.256;8.198;2023-09-08T01:38:39;15.70;99.90
47162;DHT22;32921;53.256;8.198;2023-09-08T01:41:05;15.90;99.90
47162;DHT22;32921;53.256;8.198;2023-09-08T01:43:30;16.00;99.90
47162;DHT22;32921;53.256;8.198;2023-09-08T01:45:56;16.10;99.90
47162;DHT22;32921;53.256;8.198;2023-09-08T01:48:22;16.10;99.90
47162;DHT22;32921;53.256;8.198;2023-09-08T01:50:47;16.10;99.90
47162;DHT22;32921;53.256;8.198;2023-09-08T01:53:13;16.00;99.90
47162;DHT22;32921;53.256;8.198;2023-09-08T01:55:38;15.90;99.90
47162;DHT22;32921;53.256;8.198;2023-09-08T01:58:04;16.00;99.90
47162;DHT22;32921;53.256;8.198;2023-09-08T02:00:29;16.20;99.90
47162;DHT22;32921;53.256;8.198;2023-09-08T02:02:55;16.10;99.90
47162;DHT22;32921;53.256;8.198;2023-09-08T02:05:20;16.00;99.90
47162;DHT22;32921;53.256;8.198;2023-09-08T02:07:46;16.00;99.90
47162;DHT22;32921;53.256;8.198;2023-09-08T02:10:11;16.00;99.90
47162;DHT22;32921;53.256;8.198;2023-09-08T02:12:37;16.00;99.90
47162;DHT22;32921;53.256;8.198;2023-09-08T02:15:03;15.90;99.90
47162;DHT22;32921;53.256;8.198;2023-09-08T02:17:30;16.00;99.90
47162;DHT22;32921;53.256;8.198;2023-09-08T02:19:55;16.00;99.90
47162;DHT22;32921;53.256;8.198;2023-09-08T02:22:21;15.90;99.90
47162;DHT22;32921;53.256;8.198;2023-09-08T02:24:46;15.90;99.90
47162;DHT22;32921;53.256;8.198;2023-09-08T02:27:12;16.00;99.90
47162;DHT22;32921;53.256;8.198;2023-09-08T02:29:38;16.30;99.90
47162;DHT22;32921;53.256;8.198;2023-09-08T02:32:03;16.20;99.90
47162;DHT22;32921;53.256;8.198;2023-09-08T02:34:29;16.20;99.90
47162;DHT22;32921;53.256;8.198;2023-09-08T02:36:55;16.20;99.90
47162;DHT22;32921;53.256;8.198;2023-09-08T02:39:20;16.10;99.90
47162;DHT22;32921;53.256;8.198;2023-09-08T02:41:46;16.00;99.90
47162;DHT22;32921;53.256;8.198;2023-09-08T02:44:12;16.00;99.90
47162;DHT22;32921;53.256;8.198;2023-09-08T02:46:37;16.00;99.90
47162;DHT22;32921;53.256;8.198;2023-09-08T02:49:03;16.00;99.90
47162;DHT22;32921;53.256;8.198;2023-09-08T02:51:29;15.90;99.90
47162;DHT22;32921;53.256;8.198;2023-09-08T02:53:54;15.80;99.90
47162;DHT22;32921;53.256;8.198;2023-09-08T02:56:20;16.00;99.90
47162;DHT22;32921;53.256;8.198;2023-09-08T02:58:45;16.00;99.90
47162;DHT22;32921;53.256;8.198;2023-09-08T03:01:15;15.80;99.90
47162;DHT22;32921;53.256;8.198;2023-09-08T03:03:42;15.60;99.90
47162;DHT22;32921;53.256;8.198;2023-09-08T03:06:08;15.60;99.90
47162;DHT22;32921;53.256;8.198;2023-09-08T03:08:34;15.80;99.90
47162;DHT22;32921;53.256;8.198;2023-09-08T03:11:02;15.90;99.90
47162;DHT22;32921;53.256;8.198;2023-09-08T03:13:28;16.00;99.90
47162;DHT22;32921;53.256;8.198;2023-09-08T03:15:55;15.80;99.90
47162;DHT22;32921;53.256;8.198;2023-09-08T03:18:20;15.80;99.90
47162;DHT22;32921;53.256;8.198;2023-09-08T03:20:49;15.80;99.90
47162;DHT22;32921;53.256;8.198;2023-09-08T03:23:15;15.90;99.90
47162;DHT22;32921;53.256;8.198;2023-09-08T03:25:42;16.00;99.90
47162;DHT22;32921;53.256;8.198;2023-09-08T03:28:07;16.00;99.90
47162;DHT22;32921;53.256;8.198;2023-09-08T03:30:33;16.10;99.90
47162;DHT22;32921;53.256;8.198;2023-09-08T03:32:58;16.10;99.90
47162;DHT22;32921;53.256;8.198;2023-09-08T03:35:24;16.10;99.90
47162;DHT22;32921;53.256;8.198;2023-09-08T03:37:49;16.20;99.90
47162;DHT22;32921;53.256;8.198;2023-09-08T03:40:15;16.10;99.90
47162;DHT22;32921;53.256;8.198;2023-09-08T03:42:40;16.10;99.90
47162;DHT22;32921;53.256;8.198;2023-09-08T03:45:07;16.00;99.90
47162;DHT22;32921;53.256;8.198;2023-09-08T03:47:33;15.90;99.90
47162;DHT22;32921;53.256;8.198;2023-09-08T03:49:59;15.80;99.90
47162;DHT22;32921;53.256;8.198;2023-09-08T03:52:24;15.70;99.90
47162;DHT22;32921;53.256;8.198;2023-09-08T03:54:50;15.60;99.90
47162;DHT22;32921;53.256;8.198;2023-09-08T03:57:16;15.60;99.90
47162;DHT22;32921;53.256;8.198;2023-09-08T03:59:41;15.60;99.90
47162;DHT22;32921;53.256;8.198;2023-09-08T04:02:07;15.70;99.90
47162;DHT22;32921;53.256;8.198;2023-09-08T04:04:32;15.70;99.90
47162;DHT22;32921;53.256;8.198;2023-09-08T04:06:58;15.70;99.90
47162;DHT22;32921;53.256;8.198;2023-09-08T04:09:23;15.70;99.90
47162;DHT22;32921;53.256;8.198;2023-09-08T04:11:49;15.70;99.90
47162;DHT22;32921;53.256;8.198;2023-09-08T04:14:14;15.70;99.90
47162;DHT22;32921;53.256;8.198;2023-09-08T04:16:40;15.60;99.90
47162;DHT22;32921;53.256;8.198;2023-09-08T04:19:06;15.50;99.90
47162;DHT22;32921;53.256;8.198;2023-09-08T04:21:31;15.60;99.90
47162;DHT22;32921;53.256;8.198;2023-09-08T04:23:57;15.60;99.90
47162;DHT22;32921;53.256;8.198;2023-09-08T04:26:22;15.60;99.90
47162;DHT22;32921;53.256;8.198;2023-09-08T04:28:48;15.50;99.90
47162;DHT22;32921;53.256;8.198;2023-09-08T04:31:13;15.60;99.90
47162;DHT22;32921;53.256;8.198;2023-09-08T04:33:39;15.60;99.90
47162;DHT22;32921;53.256;8.198;2023-09-08T04:36:04;15.60;99.90
47162;DHT22;32921;53.256;8.198;2023-09-08T04:38:30;15.60;99.90
47162;DHT22;32921;53.256;8.198;2023-09-08T04:40:55;15.60;99.90
47162;DHT22;32921;53.256;8.198;2023-09-08T04:43:21;15.60;99.90
47162;DHT22;32921;53.256;8.198;2023-09-08T04:45:47;15.60;99.90
47162;DHT22;32921;53.256;8.198;2023-09-08T04:48:12;15.60;99.90
47162;DHT22;32921;53.256;8.198;2023-09-08T04:50:38;15.60;99.90
47162;DHT22;32921;53.256;8.198;2023-09-08T04:53:03;15.50;99.90
47162;DHT22;32921;53.256;8.198;2023-09-08T04:55:29;15.50;99.90
47162;DHT22;32921;53.256;8.198;2023-09-08T04:57:54;15.50;99.90
47162;DHT22;32921;53.256;8.198;2023-09-08T05:00:20;15.50;99.90
47162;DHT22;32921;53.256;8.198;2023-09-08T05:02:46;15.50;99.90
47162;DHT22;32921;53.256;8.198;2023-09-08T05:05:11;15.40;99.90
47162;DHT22;32921;53.256;8.198;2023-09-08T05:07:37;15.40;99.90
47162;DHT22;32921;53.256;8.198;2023-09-08T05:10:02;15.40;99.90
47162;DHT22;32921;53.256;8.198;2023-09-08T05:12:28;15.50;99.90
47162;DHT22;32921;53.256;8.198;2023-09-08T05:14:54;15.40;99.90
47162;DHT22;32921;53.256;8.198;2023-09-08T05:17:23;15.40;99.90
47162;DHT22;32921;53.256;8.198;2023-09-08T05:19:49;15.40;99.90
47162;DHT22;32921;53.256;8.198;2023-09-08T05:22:14;15.40;99.90
47162;DHT22;32921;53.256;8.198;2023-09-08T05:24:40;15.40;99.90
47162;DHT22;32921;53.256;8.198;2023-09-08T05:27:05;15.50;99.90
47162;DHT22;32921;53.256;8.198;2023-09-08T05:29:31;15.50;99.90
47162;DHT22;32921;53.256;8.198;2023-09-08T05:31:56;15.50;99.90
47162;DHT22;32921;53.256;8.198;2023-09-08T05:34:22;15.50;99.90
47162;DHT22;32921;53.256;8.198;2023-09-08T05:36:48;15.50;99.90
47162;DHT22;32921;53.256;8.198;2023-09-08T05:39:15;15.50;99.90
47162;DHT22;32921;53.256;8.198;2023-09-08T05:41:40;15.50;99.90
47162;DHT22;32921;53.256;8.198;2023-09-08T05:44:06;15.50;99.90
47162;DHT22;32921;53.256;8.198;2023-09-08T05:46:31;15.50;99.90
47162;DHT22;32921;53.256;8.198;2023-09-08T05:48:57;15.50;99.90
47162;DHT22;32921;53.256;8.198;2023-09-08T05:51:23;15.60;99.90
47162;DHT22;32921;53.256;8.198;2023-09-08T05:53:49;15.70;99.90
47162;DHT22;32921;53.256;8.198;2023-09-08T05:56:14;15.70;99.90
47162;DHT22;32921;53.256;8.198;2023-09-08T05:58:40;15.80;99.90
47162;DHT22;32921;53.256;8.198;2023-09-08T06:01:06;15.80;99.90
47162;DHT22;32921;53.256;8.198;2023-09-08T06:03:33;15.90;99.90
47162;DHT22;32921;53.256;8.198;2023-09-08T06:05:59;16.00;99.90
47162;DHT22;32921;53.256;8.198;2023-09-08T06:08:24;16.00;99.90
47162;DHT22;32921;53.256;8.198;2023-09-08T06:10:50;16.20;99.90
47162;DHT22;32921;53.256;8.198;2023-09-08T06:13:16;16.20;99.90
47162;DHT22;32921;53.256;8.198;2023-09-08T06:15:41;16.20;99.90
47162;DHT22;32921;53.256;8.198;2023-09-08T06:18:08;16.30;99.90
47162;DHT22;32921;53.256;8.198;2023-09-08T06:20:33;16.60;99.90
47162;DHT22;32921;53.256;8.198;2023-09-08T06:22:59;16.70;99.90
47162;DHT22;32921;53.256;8.198;2023-09-08T06:25:24;17.00;99.90
47162;DHT22;32921;53.256;8.198;2023-09-08T06:27:50;17.10;99.90
47162;DHT22;32921;53.256;8.198;2023-09-08T06:30:16;17.10;99.90
47162;DHT22;32921;53.256;8.198;2023-09-08T06:32:43;17.20;99.90
47162;DHT22;32921;53.256;8.198;2023-09-08T06:35:09;17.30;99.90
47162;DHT22;32921;53.256;8.198;2023-09-08T06:37:38;17.30;99.90
47162;DHT22;32921;53.256;8.198;2023-09-08T06:40:04;17.30;99.90
47162;DHT22;32921;53.256;8.198;2023-09-08T06:42:30;17.40;99.90
47162;DHT22;32921;53.256;8.198;2023-09-08T06:44:56;17.60;99.90
47162;DHT22;32921;53.256;8.198;2023-09-08T06:47:22;17.60;99.90
47162;DHT22;32921;53.256;8.198;2023-09-08T06:49:47;17.60;99.90
47162;DHT22;32921;53.256;8.198;2023-09-08T06:52:13;17.70;99.90
47162;DHT22;32921;53.256;8.198;2023-09-08T06:54:38;17.80;99.90
47162;DHT22;32921;53.256;8.198;2023-09-08T06:57:04;17.90;99.90
47162;DHT22;32921;53.256;8.198;2023-09-08T06:59:30;18.10;99.90
47162;DHT22;32921;53.256;8.198;2023-09-08T07:01:55;18.30;99.90
47162;DHT22;32921;53.256;8.198;2023-09-08T07:04:21;18.60;99.90
47162;DHT22;32921;53.256;8.198;2023-09-08T07:06:46;18.80;99.90
47162;DHT22;32921;53.256;8.198;2023-09-08T07:09:12;18.80;99.90
47162;DHT22;32921;53.256;8.198;2023-09-08T07:11:38;19.00;99.90
47162;DHT22;32921;53.256;8.198;2023-09-08T07:14:03;19.20;99.90
47162;DHT22;32921;53.256;8.198;2023-09-08T07:16:29;19.50;99.90
47162;DHT22;32921;53.256;8.198;2023-09-08T07:18:54;19.70;99.90
47162;DHT22;32921;53.256;8.198;2023-09-08T07:21:20;20.00;99.90
47162;DHT22;32921;53.256;8.198;2023-09-08T07:23:46;20.20;99.90
47162;DHT22;32921;53.256;8.198;2023-09-08T07:26:11;20.50;99.90
47162;DHT22;32921;53.256;8.198;2023-09-08T07:28:37;21.00;99.90
47162;DHT22;32921;53.256;8.198;2023-09-08T07:31:04;21.50;99.90
47162;DHT22;32921;53.256;8.198;2023-09-08T07:33:30;22.10;99.90
47162;DHT22;32921;53.256;8.198;2023-09-08T07:35:56;22.30;99.90
47162;DHT22;32921;53.256;8.198;2023-09-08T07:38:22;22.70;99.90
47162;DHT22;32921;53.256;8.198;2023-09-08T07:40:48;23.20;99.90
47162;DHT22;32921;53.256;8.198;2023-09-08T07:43:13;23.30;99.90
47162;DHT22;32921;53.256;8.198;2023-09-08T07:45:39;23.40;99.90
47162;DHT22;32921;53.256;8.198;2023-09-08T07:48:06;23.60;99.90
47162;DHT22;32921;53.256;8.198;2023-09-08T07:50:31;23.80;99.90
47162;DHT22;32921;53.256;8.198;2023-09-08T07:52:57;23.80;99.90
47162;DHT22;32921;53.256;8.198;2023-09-08T07:55:23;24.10;99.90
47162;DHT22;32921;53.256;8.198;2023-09-08T07:57:50;24.10;99.90
47162;DHT22;32921;53.256;8.198;2023-09-08T08:00:16;24.40;99.90
47162;DHT22;32921;53.256;8.198;2023-09-08T08:02:50;24.70;99.90
47162;DHT22;32921;53.256;8.198;2023-09-08T08:05:16;25.10;98.40
47162;DHT22;32921;53.256;8.198;2023-09-08T08:07:42;25.40;98.40
47162;DHT22;32921;53.256;8.198;2023-09-08T08:10:09;25.30;95.20
47162;DHT22;32921;53.256;8.198;2023-09-08T08:12:36;25.20;95.90
47162;DHT22;32921;53.256;8.198;2023-09-08T08:15:01;25.30;96.10
47162;DHT22;32921;53.256;8.198;2023-09-08T08:17:27;25.60;95.40
47162;DHT22;32921;53.256;8.198;2023-09-08T08:19:56;25.90;95.00
47162;DHT22;32921;53.256;8.198;2023-09-08T08:22:26;26.30;93.80
47162;DHT22;32921;53.256;8.198;2023-09-08T08:24:52;26.40;92.30
47162;DHT22;32921;53.256;8.198;2023-09-08T08:27:17;26.60;92.00
47162;DHT22;32921;53.256;8.198;2023-09-08T08:29:43;26.60;91.40
47162;DHT22;32921;53.256;8.198;2023-09-08T08:32:08;26.90;91.10
47162;DHT22;32921;53.256;8.198;2023-09-08T08:34:34;26.50;90.40
47162;DHT22;32921;53.256;8.198;2023-09-08T08:37:00;26.50;91.50
47162;DHT22;32921;53.256;8.198;2023-09-08T08:39:25;27.20;89.90
47162;DHT22;32921;53.256;8.198;2023-09-08T08:41:51;27.50;87.50
47162;DHT22;32921;53.256;8.198;2023-09-08T08:44:17;27.80;86.00
47162;DHT22;32921;53.256;8.198;2023-09-08T08:46:45;28.10;86.10
47162;DHT22;32921;53.256;8.198;2023-09-08T08:49:15;27.50;83.90
47162;DHT22;32921;53.256;8.198;2023-09-08T08:51:44;27.10;88.50
47162;DHT22;32921;53.256;8.198;2023-09-08T08:54:12;27.20;86.50
47162;DHT22;32921;53.256;8.198;2023-09-08T08:56:38;27.50;87.90
47162;DHT22;32921;53.256;8.198;2023-09-08T08:59:04;26.90;87.10
47162;DHT22;32921;53.256;8.198;2023-09-08T09:01:30;26.60;88.90
47162;DHT22;32921;53.256;8.198;2023-09-08T09:03:57;26.90;89.80
47162;DHT22;32921;53.256;8.198;2023-09-08T09:06:23;26.90;89.70
47162;DHT22;32921;53.256;8.198;2023-09-08T09:08:48;26.80;90.50
47162;DHT22;32921;53.256;8.198;2023-09-08T09:11:14;26.80;89.90
47162;DHT22;32921;53.256;8.198;2023-09-08T09:13:40;26.90;90.40
47162;DHT22;32921;53.256;8.198;2023-09-08T09:16:06;26.60;90.60
47162;DHT22;32921;53.256;8.198;2023-09-08T09:18:53;26.20;91.60
47162;DHT22;32921;53.256;8.198;2023-09-08T09:21:19;26.00;92.00
47162;DHT22;32921;53.256;8.198;2023-09-08T09:23:45;26.30;92.20
47162;DHT22;32921;53.256;8.198;2023-09-08T09:26:25;26.80;91.40
47162;DHT22;32921;53.256;8.198;2023-09-08T09:28:51;27.10;90.20
47162;DHT22;32921;53.256;8.198;2023-09-08T09:31:22;27.40;90.70
47162;DHT22;32921;53.256;8.198;2023-09-08T09:33:48;28.00;88.30
47162;DHT22;32921;53.256;8.198;2023-09-08T09:36:20;28.10;84.90
47162;DHT22;32921;53.256;8.198;2023-09-08T09:38:47;27.80;87.80
47162;DHT22;32921;53.256;8.198;2023-09-08T09:41:12;28.00;87.50
47162;DHT22;32921;53.256;8.198;2023-09-08T09:43:38;28.30;86.00
47162;DHT22;32921;53.256;8.198;2023-09-08T09:46:07;28.60;82.10
47162;DHT22;32921;53.256;8.198;2023-09-08T09:48:35;28.80;82.90
47162;DHT22;32921;53.256;8.198;2023-09-08T09:51:15;28.90;83.80
47162;DHT22;32921;53.256;8.198;2023-09-08T09:53:42;29.60;81.70
47162;DHT22;32921;53.256;8.198;2023-09-08T09:56:08;29.40;79.90
47162;DHT22;32921;53.256;8.198;2023-09-08T09:58:35;29.10;80.10
47162;DHT22;32921;53.256;8.198;2023-09-08T10:01:02;28.50;81.30
47162;DHT22;32921;53.256;8.198;2023-09-08T10:03:27;29.10;81.10
47162;DHT22;32921;53.256;8.198;2023-09-08T10:05:54;30.00;80.10
47162;DHT22;32921;53.256;8.198;2023-09-08T10:08:20;30.50;76.50
47162;DHT22;32921;53.256;8.198;2023-09-08T10:10:46;30.70;75.40
47162;DHT22;32921;53.256;8.198;2023-09-08T10:13:13;30.90;74.40
47162;DHT22;32921;53.256;8.198;2023-09-08T10:15:42;30.90;72.40
47162;DHT22;32921;53.256;8.198;2023-09-08T10:18:10;30.50;74.40
47162;DHT22;32921;53.256;8.198;2023-09-08T10:20:38;30.90;74.10
47162;DHT22;32921;53.256;8.198;2023-09-08T10:23:07;31.30;71.90
47162;DHT22;32921;53.256;8.198;2023-09-08T10:25:42;31.80;69.10
47162;DHT22;32921;53.256;8.198;2023-09-08T10:28:09;32.20;68.00
47162;DHT22;32921;53.256;8.198;2023-09-08T10:30:35;31.80;68.10
47162;DHT22;32921;53.256;8.198;2023-09-08T10:33:01;31.90;69.10
47162;DHT22;32921;53.256;8.198;2023-09-08T10:35:28;32.30;66.60
47162;DHT22;32921;53.256;8.198;2023-09-08T10:38:26;33.20;64.00
47162;DHT22;32921;53.256;8.198;2023-09-08T10:43:45;33.00;64.30
47162;DHT22;32921;53.256;8.198;2023-09-08T16:29:11;33.60;62.70
47162;DHT22;32921;53.256;8.198;2023-09-08T16:31:37;29.50;48.40
47162;DHT22;32921;53.256;8.198;2023-09-08T16:34:02;29.00;48.90
47162;DHT22;32921;53.256;8.198;2023-09-08T16:36:28;28.80;52.10
47162;DHT22;32921;53.256;8.198;2023-09-08T16:38:54;28.60;52.30
47162;DHT22;32921;53.256;8.198;2023-09-08T16:41:19;28.50;53.90
47162;DHT22;32921;53.256;8.198;2023-09-08T16:43:45;28.30;54.90
47162;DHT22;32921;53.256;8.198;2023-09-08T16:46:10;28.20;55.10
47162;DHT22;32921;53.256;8.198;2023-09-08T16:48:39;28.10;55.90
47162;DHT22;32921;53.256;8.198;2023-09-08T16:51:04;27.90;58.70
47162;DHT22;32921;53.256;8.198;2023-09-08T16:53:30;27.70;61.30
47162;DHT22;32921;53.256;8.198;2023-09-08T16:55:55;27.60;64.70
47162;DHT22;32921;53.256;8.198;2023-09-08T16:58:21;27.50;63.50
47162;DHT22;32921;53.256;8.198;2023-09-08T17:00:48;27.40;65.80
47162;DHT22;32921;53.256;8.198;2023-09-08T17:03:14;27.30;67.20
47162;DHT22;32921;53.256;8.198;2023-09-08T17:05:39;27.10;70.30
47162;DHT22;32921;53.256;8.198;2023-09-08T17:08:05;27.10;71.50
47162;DHT22;32921;53.256;8.198;2023-09-08T17:10:31;27.00;74.30
47162;DHT22;32921;53.256;8.198;2023-09-08T17:12:56;26.80;78.00
47162;DHT22;32921;53.256;8.198;2023-09-08T17:15:22;26.70;81.70
47162;DHT22;32921;53.256;8.198;2023-09-08T17:17:49;26.50;84.00
47162;DHT22;32921;53.256;8.198;2023-09-08T17:20:14;26.30;88.70
47162;DHT22;32921;53.256;8.198;2023-09-08T17:22:40;26.10;93.20
47162;DHT22;32921;53.256;8.198;2023-09-08T17:25:05;25.90;94.50
47162;DHT22;32921;53.256;8.198;2023-09-08T17:27:31;25.70;96.60
47162;DHT22;32921;53.256;8.198;2023-09-08T17:29:56;25.50;99.90
47162;DHT22;32921;53.256;8.198;2023-09-08T17:32:22;25.20;99.90
47162;DHT22;32921;53.256;8.198;2023-09-08T17:34:48;25.00;99.90
47162;DHT22;32921;53.256;8.198;2023-09-08T17:37:13;24.70;99.90
47162;DHT22;32921;53.256;8.198;2023-09-08T17:39:39;24.40;99.90
47162;DHT22;32921;53.256;8.198;2023-09-08T17:42:04;24.10;99.90
47162;DHT22;32921;53.256;8.198;2023-09-08T17:44:30;23.90;99.90
47162;DHT22;32921;53.256;8.198;2023-09-08T17:46:55;23.70;99.90
47162;DHT22;32921;53.256;8.198;2023-09-08T17:49:23;23.50;99.90
47162;DHT22;32921;53.256;8.198;2023-09-08T17:51:48;23.30;99.90
47162;DHT22;32921;53.256;8.198;2023-09-08T17:54:14;23.10;99.90
47162;DHT22;32921;53.256;8.198;2023-09-08T17:56:39;22.90;99.90
47162;DHT22;32921;53.256;8.198;2023-09-08T17:59:05;22.70;99.90
47162;DHT22;32921;53.256;8.198;2023-09-08T18:01:30;22.60;99.90
47162;DHT22;32921;53.256;8.198;2023-09-08T18:03:56;22.40;99.90
47162;DHT22;32921;53.256;8.198;2023-09-08T18:06:22;22.30;99.90
47162;DHT22;32921;53.256;8.198;2023-09-08T18:08:47;22.10;99.90
47162;DHT22;32921;53.256;8.198;2023-09-08T18:11:17;22.00;99.90
47162;DHT22;32921;53.256;8.198;2023-09-08T18:13:44;21.90;99.90
47162;DHT22;32921;53.256;8.198;2023-09-08T18:16:10;21.70;99.90
47162;DHT22;32921;53.256;8.198;2023-09-08T18:18:36;21.70;99.90
47162;DHT22;32921;53.256;8.198;2023-09-08T18:21:01;21.70;99.90
47162;DHT22;32921;53.256;8.198;2023-09-08T18:23:27;21.50;99.90
47162;DHT22;32921;53.256;8.198;2023-09-08T18:25:52;21.50;99.90
47162;DHT22;32921;53.256;8.198;2023-09-08T18:28:19;21.30;99.90
47162;DHT22;32921;53.256;8.198;2023-09-08T18:30:45;21.20;99.90
47162;DHT22;32921;53.256;8.198;2023-09-08T18:33:11;21.10;99.90
47162;DHT22;32921;53.256;8.198;2023-09-08T18:35:36;21.10;99.90
47162;DHT22;32921;53.256;8.198;2023-09-08T18:38:05;21.10;99.90
47162;DHT22;32921;53.256;8.198;2023-09-08T18:40:31;21.00;99.90
47162;DHT22;32921;53.256;8.198;2023-09-08T18:42:57;20.80;99.90
47162;DHT22;32921;53.256;8.198;2023-09-08T18:45:23;20.70;99.90
47162;DHT22;32921;53.256;8.198;2023-09-08T18:47:48;20.70;99.90
47162;DHT22;32921;53.256;8.198;2023-09-08T18:50:14;20.70;99.90
47162;DHT22;32921;53.256;8.198;2023-09-08T18:52:40;20.50;99.90
47162;DHT22;32921;53.256;8.198;2023-09-08T18:55:05;20.30;99.90
47162;DHT22;32921;53.256;8.198;2023-09-08T18:57:31;20.20;99.90
47162;DHT22;32921;53.256;8.198;2023-09-08T18:59:57;20.20;99.90
47162;DHT22;32921;53.256;8.198;2023-09-08T19:02:23;20.10;99.90
47162;DHT22;32921;53.256;8.198;2023-09-08T19:04:50;20.00;99.90
47162;DHT22;32921;53.256;8.198;2023-09-08T19:07:16;19.80;99.90
47162;DHT22;32921;53.256;8.198;2023-09-08T19:09:42;19.70;99.90
47162;DHT22;32921;53.256;8.198;2023-09-08T19:12:08;19.70;99.90
47162;DHT22;32921;53.256;8.198;2023-09-08T19:14:33;19.70;99.90
47162;DHT22;32921;53.256;8.198;2023-09-08T19:16:59;19.60;99.90
47162;DHT22;32921;53.256;8.198;2023-09-08T19:19:26;19.60;99.90
47162;DHT22;32921;53.256;8.198;2023-09-08T19:21:51;19.50;99.90
47162;DHT22;32921;53.256;8.198;2023-09-08T19:24:17;19.60;99.90
47162;DHT22;32921;53.256;8.198;2023-09-08T19:26:43;19.60;99.90
47162;DHT22;32921;53.256;8.198;2023-09-08T19:29:08;19.60;99.90
47162;DHT22;32921;53.256;8.198;2023-09-08T19:31:34;19.50;99.90
47162;DHT22;32921;53.256;8.198;2023-09-08T19:34:00;19.50;99.90
47162;DHT22;32921;53.256;8.198;2023-09-08T19:36:25;19.60;99.90
47162;DHT22;32921;53.256;8.198;2023-09-08T19:38:51;19.60;99.90
47162;DHT22;32921;53.256;8.198;2023-09-08T19:41:17;19.70;99.90
47162;DHT22;32921;53.256;8.198;2023-09-08T19:43:43;19.60;99.90
47162;DHT22;32921;53.256;8.198;2023-09-08T19:46:09;19.60;99.90
47162;DHT22;32921;53.256;8.198;2023-09-08T19:48:34;19.50;99.90
47162;DHT22;32921;53.256;8.198;2023-09-08T19:51:01;19.50;99.90
47162;DHT22;32921;53.256;8.198;2023-09-08T19:53:26;19.30;99.90
47162;DHT22;32921;53.256;8.198;2023-09-08T19:55:52;19.30;99.90
47162;DHT22;32921;53.256;8.198;2023-09-08T19:58:21;19.20;99.90
47162;DHT22;32921;53.256;8.198;2023-09-08T20:00:48;19.10;99.90
47162;DHT22;32921;53.256;8.198;2023-09-08T20:03:14;19.00;99.90
47162;DHT22;32921;53.256;8.198;2023-09-08T20:05:44;18.90;99.90
47162;DHT22;32921;53.256;8.198;2023-09-08T20:08:10;18.80;99.90
47162;DHT22;32921;53.256;8.198;2023-09-08T20:10:37;18.80;99.90
47162;DHT22;32921;53.256;8.198;2023-09-08T20:13:03;18.60;99.90
47162;DHT22;32921;53.256;8.198;2023-09-08T20:15:29;18.50;99.90
47162;DHT22;32921;53.256;8.198;2023-09-08T20:17:55;18.50;99.90
47162;DHT22;32921;53.256;8.198;2023-09-08T20:20:20;18.40;99.90
47162;DHT22;32921;53.256;8.198;2023-09-08T20:22:46;18.40;99.90
47162;DHT22;32921;53.256;8.198;2023-09-08T20:25:11;18.50;99.90
47162;DHT22;32921;53.256;8.198;2023-09-08T20:27:37;18.50;99.90
47162;DHT22;32921;53.256;8.198;2023-09-08T20:30:03;18.50;99.90
47162;DHT22;32921;53.256;8.198;2023-09-08T20:32:29;18.30;99.90
47162;DHT22;32921;53.256;8.198;2023-09-08T20:34:56;18.20;99.90
47162;DHT22;32921;53.256;8.198;2023-09-08T20:37:23;18.30;99.90
47162;DHT22;32921;53.256;8.198;2023-09-08T20:39:48;18.50;99.90
47162;DHT22;32921;53.256;8.198;2023-09-08T20:42:14;18.40;99.90
47162;DHT22;32921;53.256;8.198;2023-09-08T20:44:40;18.40;99.90
47162;DHT22;32921;53.256;8.198;2023-09-08T20:47:06;18.30;99.90
47162;DHT22;32921;53.256;8.198;2023-09-08T20:49:31;18.20;99.90
47162;DHT22;32921;53.256;8.198;2023-09-08T20:51:57;18.00;99.90
47162;DHT22;32921;53.256;8.198;2023-09-08T20:54:22;17.90;99.90
47162;DHT22;32921;53.256;8.198;2023-09-08T20:56:48;17.70;99.90
47162;DHT22;32921;53.256;8.198;2023-09-08T20:59:14;17.50;99.90
47162;DHT22;32921;53.256;8.198;2023-09-08T21:01:40;17.50;99.90
47162;DHT22;32921;53.256;8.198;2023-09-08T21:04:05;17.40;99.90
47162;DHT22;32921;53.256;8.198;2023-09-08T21:06:32;17.30;99.90
47162;DHT22;32921;53.256;8.198;2023-09-08T21:09:01;17.40;99.90